sensor_id;sensor_type;location;lat;lon;timestamp;P1;durP1;ratioP1;P2;durP2;ratioP2
549;SDS011;20066;48.764;9.176;2022-11-12T00:01:02;25.75;;;12.55;;
549;SDS011;20066;48.764;9.176;2022-11-12T00:03:31;22.02;;;11.88;;
549;SDS011;20066;48.764;9.176;2022-11-12T00:05:59;25.33;;;11.38;;
549;SDS011;20066;48.764;9.176;2022-11-12T00:08:27;19.77;;;10.57;;
549;SDS011;20066;48.764;9.176;2022-11-12T00:10:55;21.77;;;11.20;;
549;SDS011;20066;48.764;9.176;2022-11-12T00:13:23;18.88;;;10.70;;
549;SDS011;20066;48.764;9.176;2022-11-12T00:15:50;22.00;;;11.60;;
549;SDS011;20066;48.764;9.176;2022-11-12T00:18:18;20.33;;;11.30;;
549;SDS011;20066;48.764;9.176;2022-11-12T00:20:47;23.05;;;11.50;;
549;SDS011;20066;48.764;9.176;2022-11-12T00:23:15;19.70;;;10.32;;
549;SDS011;20066;48.764;9.176;2022-11-12T00:25:43;17.33;;;10.80;;
549;SDS011;20066;48.764;9.176;2022-11-12T00:28:11;21.77;;;10.52;;
549;SDS011;20066;48.764;9.176;2022-11-12T00:30:39;17.30;;;9.73;;
549;SDS011;20066;48.764;9.176;2022-11-12T00:33:07;24.77;;;11.20;;
549;SDS011;20066;48.764;9.176;2022-11-12T00:35:35;23.27;;;11.10;;
549;SDS011;20066;48.764;9.176;2022-11-12T00:38:04;17.15;;;9.95;;
549;SDS011;20066;48.764;9.176;2022-11-12T00:40:32;15.68;;;9.73;;
549;SDS011;20066;48.764;9.176;2022-11-12T00:42:59;19.08;;;10.90;;
549;SDS011;20066;48.764;9.176;2022-11-12T00:45:27;20.08;;;10.35;;
549;SDS011;20066;48.764;9.176;2022-11-12T00:47:55;19.60;;;11.25;;
549;SDS011;20066;48.764;9.176;2022-11-12T00:50:23;18.25;;;9.88;;
549;SDS011;20066;48.764;9.176;2022-11-12T00:52:51;19.10;;;9.90;;
549;SDS011;20066;48.764;9.176;2022-11-12T00:55:21;22.50;;;9.65;;
549;SDS011;20066;48.764;9.176;2022-11-12T00:57:49;19.85;;;11.30;;
549;SDS011;20066;48.764;9.176;2022-11-12T01:00:17;18.95;;;10.35;;
549;SDS011;20066;48.764;9.176;2022-11-12T01:02:47;27.40;;;12.05;;
549;SDS011;20066;48.764;9.176;2022-11-12T01:05:16;27.73;;;11.35;;
549;SDS011;20066;48.764;9.176;2022-11-12T01:07:45;27.83;;;10.57;;
549;SDS011;20066;48.764;9.176;2022-11-12T01:10:21;23.50;;;10.18;;
549;SDS011;20066;48.764;9.176;2022-11-12T01:12:49;20.75;;;10.43;;
549;SDS011;20066;48.764;9.176;2022-11-12T01:15:16;20.38;;;9.60;;
549;SDS011;20066;48.764;9.176;2022-11-12T01:17:44;18.67;;;9.70;;
549;SDS011;20066;48.764;9.176;2022-11-12T01:20:12;21.55;;;9.88;;
549;SDS011;20066;48.764;9.176;2022-11-12T01:22:40;19.08;;;9.93;;
549;SDS011;20066;48.764;9.176;2022-11-12T01:25:07;16.00;;;10.23;;
549;SDS011;20066;48.764;9.176;2022-11-12T01:27:37;18.48;;;9.75;;
549;SDS011;20066;48.764;9.176;2022-11-12T01:30:05;17.02;;;9.70;;
549;SDS011;20066;48.764;9.176;2022-11-12T01:32:34;16.33;;;9.70;;
549;SDS011;20066;48.764;9.176;2022-11-12T01:35:03;17.55;;;9.77;;
549;SDS011;20066;48.764;9.176;2022-11-12T01:37:31;17.40;;;9.95;;
549;SDS011;20066;48.764;9.176;2022-11-12T01:39:59;17.85;;;10.45;;
549;SDS011;20066;48.764;9.176;2022-11-12T01:42:27;17.95;;;10.00;;
549;SDS011;20066;48.764;9.176;2022-11-12T01:44:59;19.05;;;9.60;;
549;SDS011;20066;48.764;9.176;2022-11-12T01:47:27;18.08;;;9.88;;
549;SDS011;20066;48.764;9.176;2022-11-12T01:49:58;21.98;;;10.30;;
549;SDS011;20066;48.764;9.176;2022-11-12T01:52:32;25.23;;;10.35;;
549;SDS011;20066;48.764;9.176;2022-11-12T01:55:04;18.58;;;10.57;;
549;SDS011;20066;48.764;9.176;2022-11-12T01:57:36;18.80;;;10.10;;
549;SDS011;20066;48.764;9.176;2022-11-12T02:00:08;17.88;;;9.95;;
549;SDS011;20066;48.764;9.176;2022-11-12T02:02:38;22.77;;;10.07;;
549;SDS011;20066;48.764;9.176;2022-11-12T02:05:07;18.85;;;9.48;;
549;SDS011;20066;48.764;9.176;2022-11-12T02:07:37;20.02;;;9.35;;
549;SDS011;20066;48.764;9.176;2022-11-12T02:10:07;15.25;;;8.90;;
549;SDS011;20066;48.764;9.176;2022-11-12T02:12:35;26.80;;;10.07;;
549;SDS011;20066;48.764;9.176;2022-11-12T02:15:23;19.73;;;9.00;;
549;SDS011;20066;48.764;9.176;2022-11-12T02:17:51;25.38;;;9.27;;
549;SDS011;20066;48.764;9.176;2022-11-12T02:20:19;19.58;;;8.50;;
549;SDS011;20066;48.764;9.176;2022-11-12T02:22:49;24.25;;;9.55;;
549;SDS011;20066;48.764;9.176;2022-11-12T02:25:17;20.42;;;9.40;;
549;SDS011;20066;48.764;9.176;2022-11-12T02:27:47;24.65;;;9.40;;
549;SDS011;20066;48.764;9.176;2022-11-12T02:30:17;21.45;;;9.13;;
549;SDS011;20066;48.764;9.176;2022-11-12T02:32:45;20.98;;;9.20;;
549;SDS011;20066;48.764;9.176;2022-11-12T02:35:12;18.00;;;9.73;;
549;SDS011;20066;48.764;9.176;2022-11-12T02:37:40;14.90;;;8.43;;
549;SDS011;20066;48.764;9.176;2022-11-12T02:40:09;18.17;;;9.50;;
549;SDS011;20066;48.764;9.176;2022-11-12T02:42:37;15.95;;;8.85;;
549;SDS011;20066;48.764;9.176;2022-11-12T02:45:05;13.40;;;8.40;;
549;SDS011;20066;48.764;9.176;2022-11-12T02:47:33;13.82;;;8.73;;
549;SDS011;20066;48.764;9.176;2022-11-12T02:50:01;11.20;;;7.75;;
549;SDS011;20066;48.764;9.176;2022-11-12T02:52:29;12.50;;;8.07;;
549;SDS011;20066;48.764;9.176;2022-11-12T02:54:58;14.93;;;9.15;;
549;SDS011;20066;48.764;9.176;2022-11-12T02:57:27;15.73;;;9.57;;
549;SDS011;20066;48.764;9.176;2022-11-12T02:59:56;16.33;;;9.88;;
549;SDS011;20066;48.764;9.176;2022-11-12T03:02:23;14.73;;;7.82;;
549;SDS011;20066;48.764;9.176;2022-11-12T03:04:51;14.32;;;8.88;;
549;SDS011;20066;48.764;9.176;2022-11-12T03:07:19;13.25;;;8.18;;
549;SDS011;20066;48.764;9.176;2022-11-12T03:09:46;16.75;;;9.65;;
549;SDS011;20066;48.764;9.176;2022-11-12T03:12:14;13.77;;;8.27;;
549;SDS011;20066;48.764;9.176;2022-11-12T03:14:43;16.33;;;9.02;;
549;SDS011;20066;48.764;9.176;2022-11-12T03:17:11;14.40;;;8.15;;
549;SDS011;20066;48.764;9.176;2022-11-12T03:19:39;14.93;;;8.65;;
549;SDS011;20066;48.764;9.176;2022-11-12T03:22:06;16.85;;;8.75;;
549;SDS011;20066;48.764;9.176;2022-11-12T03:24:34;13.80;;;7.50;;
549;SDS011;20066;48.764;9.176;2022-11-12T03:27:02;15.40;;;9.02;;
549;SDS011;20066;48.764;9.176;2022-11-12T03:29:30;13.00;;;7.65;;
549;SDS011;20066;48.764;9.176;2022-11-12T03:31:59;12.48;;;6.93;;
549;SDS011;20066;48.764;9.176;2022-11-12T03:34:26;11.77;;;7.43;;
549;SDS011;20066;48.764;9.176;2022-11-12T03:36:54;12.70;;;7.38;;
549;SDS011;20066;48.764;9.176;2022-11-12T03:39:22;12.15;;;7.07;;
549;SDS011;20066;48.764;9.176;2022-11-12T03:41:49;13.13;;;7.97;;
549;SDS011;20066;48.764;9.176;2022-11-12T03:44:17;11.82;;;7.47;;
549;SDS011;20066;48.764;9.176;2022-11-12T03:46:45;14.15;;;7.78;;
549;SDS011;20066;48.764;9.176;2022-11-12T03:49:14;11.90;;;7.90;;
549;SDS011;20066;48.764;9.176;2022-11-12T03:51:42;11.80;;;7.57;;
549;SDS011;20066;48.764;9.176;2022-11-12T03:54:09;10.65;;;7.32;;
549;SDS011;20066;48.764;9.176;2022-11-12T03:56:37;9.23;;;6.53;;
549;SDS011;20066;48.764;9.176;2022-11-12T03:59:05;11.35;;;6.70;;
549;SDS011;20066;48.764;9.176;2022-11-12T04:01:33;12.52;;;6.93;;
549;SDS011;20066;48.764;9.176;2022-11-12T04:04:00;11.73;;;7.13;;
549;SDS011;20066;48.764;9.176;2022-11-12T04:06:29;9.30;;;6.50;;
549;SDS011;20066;48.764;9.176;2022-11-12T04:09:14;11.27;;;6.88;;
549;SDS011;20066;48.764;9.176;2022-11-12T04:11:42;10.07;;;7.00;;
549;SDS011;20066;48.764;9.176;2022-11-12T04:14:10;12.35;;;7.30;;
549;SDS011;20066;48.764;9.176;2022-11-12T04:16:36;8.40;;;5.85;;
549;SDS011;20066;48.764;9.176;2022-11-12T04:19:22;8.18;;;5.43;;
549;SDS011;20066;48.764;9.176;2022-11-12T04:22:09;8.82;;;6.15;;
549;SDS011;20066;48.764;9.176;2022-11-12T04:24:38;10.88;;;6.88;;
549;SDS011;20066;48.764;9.176;2022-11-12T04:27:25;15.40;;;6.47;;
549;SDS011;20066;48.764;9.176;2022-11-12T04:29:55;22.05;;;7.45;;
549;SDS011;20066;48.764;9.176;2022-11-12T04:32:44;19.13;;;7.50;;
549;SDS011;20066;48.764;9.176;2022-11-12T04:35:14;27.58;;;9.73;;
549;SDS011;20066;48.764;9.176;2022-11-12T04:37:43;15.57;;;7.15;;
549;SDS011;20066;48.764;9.176;2022-11-12T04:40:11;18.92;;;6.63;;
549;SDS011;20066;48.764;9.176;2022-11-12T04:42:58;12.52;;;6.40;;
549;SDS011;20066;48.764;9.176;2022-11-12T04:45:45;11.10;;;6.47;;
549;SDS011;20066;48.764;9.176;2022-11-12T04:48:16;16.67;;;6.60;;
549;SDS011;20066;48.764;9.176;2022-11-12T04:50:44;14.60;;;6.63;;
549;SDS011;20066;48.764;9.176;2022-11-12T04:53:15;15.85;;;7.15;;
549;SDS011;20066;48.764;9.176;2022-11-12T04:55:43;12.60;;;6.53;;
549;SDS011;20066;48.764;9.176;2022-11-12T04:58:11;11.63;;;6.15;;
549;SDS011;20066;48.764;9.176;2022-11-12T05:00:38;13.38;;;6.43;;
549;SDS011;20066;48.764;9.176;2022-11-12T05:03:06;17.48;;;7.70;;
549;SDS011;20066;48.764;9.176;2022-11-12T05:05:34;15.20;;;6.97;;
549;SDS011;20066;48.764;9.176;2022-11-12T05:08:02;15.82;;;6.82;;
549;SDS011;20066;48.764;9.176;2022-11-12T05:10:31;14.60;;;6.82;;
549;SDS011;20066;48.764;9.176;2022-11-12T05:12:59;18.33;;;7.45;;
549;SDS011;20066;48.764;9.176;2022-11-12T05:15:26;13.40;;;6.32;;
549;SDS011;20066;48.764;9.176;2022-11-12T05:17:54;18.75;;;7.15;;
549;SDS011;20066;48.764;9.176;2022-11-12T05:20:22;11.98;;;6.10;;
549;SDS011;20066;48.764;9.176;2022-11-12T05:22:49;22.77;;;7.65;;
549;SDS011;20066;48.764;9.176;2022-11-12T05:25:33;5.28;;;4.55;;
549;SDS011;20066;48.764;9.176;2022-11-12T05:28:01;8.30;;;6.10;;
549;SDS011;20066;48.764;9.176;2022-11-12T05:30:32;9.13;;;5.72;;
549;SDS011;20066;48.764;9.176;2022-11-12T05:33:00;10.35;;;6.90;;
549;SDS011;20066;48.764;9.176;2022-11-12T05:35:28;8.85;;;5.50;;
549;SDS011;20066;48.764;9.176;2022-11-12T05:37:55;6.60;;;4.70;;
549;SDS011;20066;48.764;9.176;2022-11-12T05:40:23;7.88;;;5.15;;
549;SDS011;20066;48.764;9.176;2022-11-12T05:42:52;9.25;;;6.00;;
549;SDS011;20066;48.764;9.176;2022-11-12T05:45:20;9.38;;;5.90;;
549;SDS011;20066;48.764;9.176;2022-11-12T05:47:48;8.88;;;5.68;;
549;SDS011;20066;48.764;9.176;2022-11-12T05:50:15;9.27;;;5.88;;
549;SDS011;20066;48.764;9.176;2022-11-12T05:52:44;10.35;;;6.80;;
549;SDS011;20066;48.764;9.176;2022-11-12T05:55:11;9.85;;;6.13;;
549;SDS011;20066;48.764;9.176;2022-11-12T05:57:39;9.45;;;6.20;;
549;SDS011;20066;48.764;9.176;2022-11-12T06:00:09;8.90;;;6.05;;
549;SDS011;20066;48.764;9.176;2022-11-12T06:02:38;8.25;;;5.55;;
549;SDS011;20066;48.764;9.176;2022-11-12T06:05:06;7.20;;;5.50;;
549;SDS011;20066;48.764;9.176;2022-11-12T06:07:34;8.43;;;5.90;;
549;SDS011;20066;48.764;9.176;2022-11-12T06:10:02;8.90;;;6.13;;
549;SDS011;20066;48.764;9.176;2022-11-12T06:12:30;9.82;;;6.05;;
549;SDS011;20066;48.764;9.176;2022-11-12T06:14:57;10.60;;;6.25;;
549;SDS011;20066;48.764;9.176;2022-11-12T06:17:26;9.15;;;5.88;;
549;SDS011;20066;48.764;9.176;2022-11-12T06:19:54;7.45;;;5.57;;
549;SDS011;20066;48.764;9.176;2022-11-12T06:22:22;9.88;;;5.78;;
549;SDS011;20066;48.764;9.176;2022-11-12T06:24:49;6.65;;;5.55;;
549;SDS011;20066;48.764;9.176;2022-11-12T06:27:17;8.90;;;6.03;;
549;SDS011;20066;48.764;9.176;2022-11-12T06:29:45;10.35;;;6.30;;
549;SDS011;20066;48.764;9.176;2022-11-12T06:32:13;7.43;;;5.53;;
549;SDS011;20066;48.764;9.176;2022-11-12T06:34:42;7.40;;;5.22;;
549;SDS011;20066;48.764;9.176;2022-11-12T06:37:09;7.60;;;5.20;;
549;SDS011;20066;48.764;9.176;2022-11-12T06:39:37;12.98;;;5.55;;
549;SDS011;20066;48.764;9.176;2022-11-12T06:42:05;8.55;;;6.03;;
549;SDS011;20066;48.764;9.176;2022-11-12T06:44:32;7.03;;;5.00;;
549;SDS011;20066;48.764;9.176;2022-11-12T06:47:00;8.20;;;5.60;;
549;SDS011;20066;48.764;9.176;2022-11-12T06:49:28;7.28;;;5.10;;
549;SDS011;20066;48.764;9.176;2022-11-12T06:51:57;6.95;;;4.57;;
549;SDS011;20066;48.764;9.176;2022-11-12T06:54:25;7.20;;;4.65;;
549;SDS011;20066;48.764;9.176;2022-11-12T06:56:52;8.50;;;5.60;;
549;SDS011;20066;48.764;9.176;2022-11-12T06:59:20;10.25;;;6.45;;
549;SDS011;20066;48.764;9.176;2022-11-12T07:01:48;8.85;;;6.10;;
549;SDS011;20066;48.764;9.176;2022-11-12T07:04:16;7.65;;;5.05;;
549;SDS011;20066;48.764;9.176;2022-11-12T07:06:44;8.25;;;5.18;;
549;SDS011;20066;48.764;9.176;2022-11-12T07:09:13;7.95;;;6.15;;
549;SDS011;20066;48.764;9.176;2022-11-12T07:11:40;8.43;;;5.60;;
549;SDS011;20066;48.764;9.176;2022-11-12T07:14:08;10.35;;;5.30;;
549;SDS011;20066;48.764;9.176;2022-11-12T07:16:36;10.10;;;5.70;;
549;SDS011;20066;48.764;9.176;2022-11-12T07:19:04;7.55;;;5.05;;
549;SDS011;20066;48.764;9.176;2022-11-12T07:21:32;9.82;;;5.68;;
549;SDS011;20066;48.764;9.176;2022-11-12T07:23:59;6.90;;;4.45;;
549;SDS011;20066;48.764;9.176;2022-11-12T07:26:28;9.30;;;5.25;;
549;SDS011;20066;48.764;9.176;2022-11-12T07:28:56;7.07;;;4.63;;
549;SDS011;20066;48.764;9.176;2022-11-12T07:31:24;10.18;;;5.00;;
549;SDS011;20066;48.764;9.176;2022-11-12T07:33:52;8.38;;;5.20;;
549;SDS011;20066;48.764;9.176;2022-11-12T07:36:20;6.32;;;4.75;;
549;SDS011;20066;48.764;9.176;2022-11-12T07:38:49;6.80;;;4.78;;
549;SDS011;20066;48.764;9.176;2022-11-12T07:41:19;8.25;;;4.57;;
549;SDS011;20066;48.764;9.176;2022-11-12T07:43:49;8.27;;;4.68;;
549;SDS011;20066;48.764;9.176;2022-11-12T07:46:20;9.05;;;5.35;;
549;SDS011;20066;48.764;9.176;2022-11-12T07:48:49;9.23;;;5.80;;
549;SDS011;20066;48.764;9.176;2022-11-12T07:51:18;13.10;;;5.47;;
549;SDS011;20066;48.764;9.176;2022-11-12T07:53:47;10.68;;;6.20;;
549;SDS011;20066;48.764;9.176;2022-11-12T07:56:24;12.35;;;6.05;;
549;SDS011;20066;48.764;9.176;2022-11-12T07:58:54;11.32;;;5.68;;
549;SDS011;20066;48.764;9.176;2022-11-12T08:01:23;10.13;;;5.20;;
549;SDS011;20066;48.764;9.176;2022-11-12T08:03:54;10.77;;;5.68;;
549;SDS011;20066;48.764;9.176;2022-11-12T08:06:22;23.35;;;10.55;;
549;SDS011;20066;48.764;9.176;2022-11-12T08:08:51;13.73;;;7.20;;
549;SDS011;20066;48.764;9.176;2022-11-12T08:11:18;15.70;;;7.22;;
549;SDS011;20066;48.764;9.176;2022-11-12T08:13:46;16.23;;;7.32;;
549;SDS011;20066;48.764;9.176;2022-11-12T08:16:15;14.60;;;6.65;;
549;SDS011;20066;48.764;9.176;2022-11-12T08:18:44;10.30;;;5.85;;
549;SDS011;20066;48.764;9.176;2022-11-12T08:21:13;14.65;;;6.20;;
549;SDS011;20066;48.764;9.176;2022-11-12T08:23:43;13.13;;;6.40;;
549;SDS011;20066;48.764;9.176;2022-11-12T08:26:12;14.60;;;6.63;;
549;SDS011;20066;48.764;9.176;2022-11-12T08:28:41;10.57;;;5.80;;
549;SDS011;20066;48.764;9.176;2022-11-12T08:31:09;13.52;;;6.30;;
549;SDS011;20066;48.764;9.176;2022-11-12T08:33:40;12.38;;;6.57;;
549;SDS011;20066;48.764;9.176;2022-11-12T08:36:09;12.05;;;6.57;;
549;SDS011;20066;48.764;9.176;2022-11-12T08:38:39;13.10;;;6.43;;
549;SDS011;20066;48.764;9.176;2022-11-12T08:41:08;8.98;;;5.65;;
549;SDS011;20066;48.764;9.176;2022-11-12T08:43:37;8.93;;;5.95;;
549;SDS011;20066;48.764;9.176;2022-11-12T08:46:06;7.67;;;5.07;;
549;SDS011;20066;48.764;9.176;2022-11-12T08:48:34;7.00;;;5.10;;
549;SDS011;20066;48.764;9.176;2022-11-12T08:51:04;11.23;;;4.43;;
549;SDS011;20066;48.764;9.176;2022-11-12T08:53:33;6.63;;;4.50;;
549;SDS011;20066;48.764;9.176;2022-11-12T08:56:01;6.47;;;5.00;;
549;SDS011;20066;48.764;9.176;2022-11-12T08:58:29;6.90;;;5.07;;
549;SDS011;20066;48.764;9.176;2022-11-12T09:01:02;5.60;;;4.00;;
549;SDS011;20066;48.764;9.176;2022-11-12T09:03:30;8.17;;;4.63;;
549;SDS011;20066;48.764;9.176;2022-11-12T09:06:00;7.07;;;4.77;;
549;SDS011;20066;48.764;9.176;2022-11-12T09:08:31;5.73;;;4.10;;
549;SDS011;20066;48.764;9.176;2022-11-12T09:13:48;8.40;;;5.20;;
549;SDS011;20066;48.764;9.176;2022-11-12T09:16:18;7.10;;;5.03;;
549;SDS011;20066;48.764;9.176;2022-11-12T09:18:46;6.90;;;4.50;;
549;SDS011;20066;48.764;9.176;2022-11-12T09:21:14;10.40;;;5.40;;
549;SDS011;20066;48.764;9.176;2022-11-12T09:23:44;6.40;;;4.67;;
549;SDS011;20066;48.764;9.176;2022-11-12T09:26:13;8.63;;;6.07;;
549;SDS011;20066;48.764;9.176;2022-11-12T09:28:40;6.70;;;4.43;;
549;SDS011;20066;48.764;9.176;2022-11-12T09:31:08;12.10;;;6.90;;
549;SDS011;20066;48.764;9.176;2022-11-12T09:33:36;10.73;;;6.63;;
549;SDS011;20066;48.764;9.176;2022-11-12T09:36:04;11.53;;;6.93;;
549;SDS011;20066;48.764;9.176;2022-11-12T09:38:32;7.47;;;4.67;;
549;SDS011;20066;48.764;9.176;2022-11-12T09:41:13;11.87;;;6.70;;
549;SDS011;20066;48.764;9.176;2022-11-12T09:43:46;9.63;;;6.07;;
549;SDS011;20066;48.764;9.176;2022-11-12T09:49:10;11.63;;;6.70;;
549;SDS011;20066;48.764;9.176;2022-11-12T09:51:41;10.17;;;6.83;;
549;SDS011;20066;48.764;9.176;2022-11-12T09:54:18;10.37;;;6.70;;
549;SDS011;20066;48.764;9.176;2022-11-12T09:56:50;10.30;;;6.17;;
549;SDS011;20066;48.764;9.176;2022-11-12T09:59:20;15.80;;;8.20;;
549;SDS011;20066;48.764;9.176;2022-11-12T10:01:54;15.20;;;8.23;;
549;SDS011;20066;48.764;9.176;2022-11-12T10:07:25;14.57;;;7.80;;
549;SDS011;20066;48.764;9.176;2022-11-12T10:10:00;11.10;;;7.40;;
549;SDS011;20066;48.764;9.176;2022-11-12T10:12:35;13.87;;;7.80;;
549;SDS011;20066;48.764;9.176;2022-11-12T10:15:28;14.83;;;8.20;;
549;SDS011;20066;48.764;9.176;2022-11-12T10:18:23;10.90;;;6.10;;
549;SDS011;20066;48.764;9.176;2022-11-12T10:21:00;8.27;;;5.70;;
549;SDS011;20066;48.764;9.176;2022-11-12T10:23:39;7.40;;;4.60;;
549;SDS011;20066;48.764;9.176;2022-11-12T10:26:10;8.80;;;5.20;;
549;SDS011;20066;48.764;9.176;2022-11-12T10:28:42;6.40;;;4.40;;
549;SDS011;20066;48.764;9.176;2022-11-12T10:31:13;7.23;;;4.83;;
549;SDS011;20066;48.764;9.176;2022-11-12T10:33:42;10.43;;;6.00;;
549;SDS011;20066;48.764;9.176;2022-11-12T10:36:20;7.40;;;5.80;;
549;SDS011;20066;48.764;9.176;2022-11-12T10:38:53;10.63;;;6.80;;
549;SDS011;20066;48.764;9.176;2022-11-12T10:41:22;13.90;;;7.17;;
549;SDS011;20066;48.764;9.176;2022-11-12T10:43:54;12.03;;;6.73;;
549;SDS011;20066;48.764;9.176;2022-11-12T10:46:24;12.83;;;6.70;;
549;SDS011;20066;48.764;9.176;2022-11-12T10:48:58;37.20;;;8.03;;
549;SDS011;20066;48.764;9.176;2022-11-12T10:51:31;25.70;;;7.60;;
549;SDS011;20066;48.764;9.176;2022-11-12T10:54:17;10.83;;;6.63;;
549;SDS011;20066;48.764;9.176;2022-11-12T10:56:47;11.07;;;6.77;;
549;SDS011;20066;48.764;9.176;2022-11-12T10:59:22;8.30;;;5.70;;
549;SDS011;20066;48.764;9.176;2022-11-12T11:01:54;13.80;;;5.57;;
549;SDS011;20066;48.764;9.176;2022-11-12T11:04:27;10.20;;;6.13;;
549;SDS011;20066;48.764;9.176;2022-11-12T11:06:58;11.73;;;6.40;;
549;SDS011;20066;48.764;9.176;2022-11-12T11:09:29;9.40;;;6.10;;
549;SDS011;20066;48.764;9.176;2022-11-12T11:11:57;10.87;;;6.10;;
549;SDS011;20066;48.764;9.176;2022-11-12T11:14:28;14.73;;;7.40;;
549;SDS011;20066;48.764;9.176;2022-11-12T11:16:58;13.40;;;7.97;;
549;SDS011;20066;48.764;9.176;2022-11-12T11:19:32;12.47;;;7.70;;
549;SDS011;20066;48.764;9.176;2022-11-12T11:22:21;14.03;;;7.53;;
549;SDS011;20066;48.764;9.176;2022-11-12T11:24:57;10.47;;;6.90;;
549;SDS011;20066;48.764;9.176;2022-11-12T11:27:46;12.40;;;8.40;;
549;SDS011;20066;48.764;9.176;2022-11-12T11:30:25;13.10;;;9.27;;
549;SDS011;20066;48.764;9.176;2022-11-12T11:33:05;12.90;;;8.30;;
549;SDS011;20066;48.764;9.176;2022-11-12T11:35:51;12.47;;;8.40;;
549;SDS011;20066;48.764;9.176;2022-11-12T11:38:27;12.93;;;8.70;;
549;SDS011;20066;48.764;9.176;2022-11-12T11:41:04;24.57;;;13.13;;
549;SDS011;20066;48.764;9.176;2022-11-12T11:43:57;13.27;;;8.47;;
549;SDS011;20066;48.764;9.176;2022-11-12T11:46:47;12.53;;;8.30;;
549;SDS011;20066;48.764;9.176;2022-11-12T11:52:32;13.77;;;7.87;;
549;SDS011;20066;48.764;9.176;2022-11-12T11:55:16;16.87;;;7.70;;
549;SDS011;20066;48.764;9.176;2022-11-12T11:57:55;17.00;;;10.37;;
549;SDS011;20066;48.764;9.176;2022-11-12T12:00:34;17.53;;;8.27;;
549;SDS011;20066;48.764;9.176;2022-11-12T12:03:17;14.60;;;8.70;;
549;SDS011;20066;48.764;9.176;2022-11-12T12:06:06;15.43;;;8.63;;
549;SDS011;20066;48.764;9.176;2022-11-12T12:11:35;14.00;;;8.43;;
549;SDS011;20066;48.764;9.176;2022-11-12T12:14:16;10.73;;;7.07;;
549;SDS011;20066;48.764;9.176;2022-11-12T12:16:52;14.57;;;8.47;;
549;SDS011;20066;48.764;9.176;2022-11-12T12:19:37;12.70;;;7.80;;
549;SDS011;20066;48.764;9.176;2022-11-12T12:22:12;11.83;;;7.27;;
549;SDS011;20066;48.764;9.176;2022-11-12T12:24:44;11.30;;;7.53;;
549;SDS011;20066;48.764;9.176;2022-11-12T12:27:17;11.17;;;7.33;;
549;SDS011;20066;48.764;9.176;2022-11-12T12:29:49;12.37;;;7.87;;
549;SDS011;20066;48.764;9.176;2022-11-12T12:32:21;10.47;;;7.47;;
549;SDS011;20066;48.764;9.176;2022-11-12T12:34:57;12.03;;;7.63;;
549;SDS011;20066;48.764;9.176;2022-11-12T12:37:32;13.47;;;8.33;;
549;SDS011;20066;48.764;9.176;2022-11-12T12:40:08;13.80;;;8.10;;
549;SDS011;20066;48.764;9.176;2022-11-12T12:42:44;16.10;;;8.00;;
549;SDS011;20066;48.764;9.176;2022-11-12T12:48:10;11.00;;;7.33;;
549;SDS011;20066;48.764;9.176;2022-11-12T12:50:43;13.70;;;8.20;;
549;SDS011;20066;48.764;9.176;2022-11-12T12:53:16;13.87;;;7.87;;
549;SDS011;20066;48.764;9.176;2022-11-12T12:55:57;11.27;;;7.03;;
549;SDS011;20066;48.764;9.176;2022-11-12T12:58:27;13.43;;;6.13;;
549;SDS011;20066;48.764;9.176;2022-11-12T13:00:58;10.40;;;6.70;;
549;SDS011;20066;48.764;9.176;2022-11-12T13:03:48;10.97;;;7.27;;
549;SDS011;20066;48.764;9.176;2022-11-12T13:06:23;16.43;;;7.07;;
549;SDS011;20066;48.764;9.176;2022-11-12T13:08:55;16.23;;;6.77;;
549;SDS011;20066;48.764;9.176;2022-11-12T13:14:47;16.27;;;6.90;;
549;SDS011;20066;48.764;9.176;2022-11-12T13:17:43;9.43;;;5.90;;
549;SDS011;20066;48.764;9.176;2022-11-12T13:23:09;11.13;;;6.90;;
549;SDS011;20066;48.764;9.176;2022-11-12T13:37:51;16.50;;;7.60;;
549;SDS011;20066;48.764;9.176;2022-11-12T13:43:30;16.93;;;7.50;;
549;SDS011;20066;48.764;9.176;2022-11-12T13:46:11;10.80;;;6.67;;
549;SDS011;20066;48.764;9.176;2022-11-12T13:48:51;9.97;;;6.97;;
549;SDS011;20066;48.764;9.176;2022-11-12T13:51:27;12.87;;;7.30;;
549;SDS011;20066;48.764;9.176;2022-11-12T13:54:01;10.60;;;6.20;;
549;SDS011;20066;48.764;9.176;2022-11-12T13:57:15;11.07;;;7.17;;
549;SDS011;20066;48.764;9.176;2022-11-12T14:00:08;11.50;;;7.60;;
549;SDS011;20066;48.764;9.176;2022-11-12T14:02:47;15.07;;;7.17;;
549;SDS011;20066;48.764;9.176;2022-11-12T14:05:19;13.03;;;6.63;;
549;SDS011;20066;48.764;9.176;2022-11-12T14:08:00;11.70;;;7.77;;
549;SDS011;20066;48.764;9.176;2022-11-12T14:10:40;13.20;;;6.70;;
549;SDS011;20066;48.764;9.176;2022-11-12T14:13:24;15.97;;;7.77;;
549;SDS011;20066;48.764;9.176;2022-11-12T14:16:15;13.20;;;7.03;;
549;SDS011;20066;48.764;9.176;2022-11-12T14:19:05;12.20;;;7.07;;
549;SDS011;20066;48.764;9.176;2022-11-12T14:21:56;10.93;;;7.10;;
549;SDS011;20066;48.764;9.176;2022-11-12T14:24:24;11.70;;;7.50;;
549;SDS011;20066;48.764;9.176;2022-11-12T14:26:52;11.20;;;6.77;;
549;SDS011;20066;48.764;9.176;2022-11-12T14:29:22;13.60;;;6.40;;
549;SDS011;20066;48.764;9.176;2022-11-12T14:31:58;11.30;;;6.77;;
549;SDS011;20066;48.764;9.176;2022-11-12T14:34:28;9.60;;;6.37;;
549;SDS011;20066;48.764;9.176;2022-11-12T14:36:58;11.43;;;6.90;;
549;SDS011;20066;48.764;9.176;2022-11-12T14:39:26;14.10;;;7.87;;
549;SDS011;20066;48.764;9.176;2022-11-12T14:41:57;11.67;;;7.23;;
549;SDS011;20066;48.764;9.176;2022-11-12T14:44:28;13.13;;;6.90;;
549;SDS011;20066;48.764;9.176;2022-11-12T14:47:00;13.50;;;7.80;;
549;SDS011;20066;48.764;9.176;2022-11-12T14:49:31;13.83;;;7.47;;
549;SDS011;20066;48.764;9.176;2022-11-12T14:52:10;11.77;;;7.60;;
549;SDS011;20066;48.764;9.176;2022-11-12T14:54:43;10.13;;;7.40;;
549;SDS011;20066;48.764;9.176;2022-11-12T14:57:17;14.23;;;7.40;;
549;SDS011;20066;48.764;9.176;2022-11-12T14:59:50;11.47;;;7.50;;
549;SDS011;20066;48.764;9.176;2022-11-12T15:02:19;12.77;;;7.70;;
549;SDS011;20066;48.764;9.176;2022-11-12T15:05:11;12.90;;;8.33;;
549;SDS011;20066;48.764;9.176;2022-11-12T15:07:50;16.10;;;9.57;;
549;SDS011;20066;48.764;9.176;2022-11-12T15:10:33;13.20;;;8.13;;
549;SDS011;20066;48.764;9.176;2022-11-12T15:13:02;12.57;;;7.93;;
549;SDS011;20066;48.764;9.176;2022-11-12T15:15:34;10.30;;;6.57;;
549;SDS011;20066;48.764;9.176;2022-11-12T15:18:05;9.70;;;6.10;;
549;SDS011;20066;48.764;9.176;2022-11-12T15:20:40;12.23;;;7.20;;
549;SDS011;20066;48.764;9.176;2022-11-12T15:23:13;14.40;;;8.13;;
549;SDS011;20066;48.764;9.176;2022-11-12T15:25:43;13.23;;;7.70;;
549;SDS011;20066;48.764;9.176;2022-11-12T15:28:12;16.83;;;8.40;;
549;SDS011;20066;48.764;9.176;2022-11-12T15:31:00;13.03;;;6.13;;
549;SDS011;20066;48.764;9.176;2022-11-12T15:33:29;10.32;;;6.70;;
549;SDS011;20066;48.764;9.176;2022-11-12T15:35:56;13.67;;;7.90;;
549;SDS011;20066;48.764;9.176;2022-11-12T15:38:26;10.00;;;6.50;;
549;SDS011;20066;48.764;9.176;2022-11-12T15:40:57;15.13;;;7.70;;
549;SDS011;20066;48.764;9.176;2022-11-12T15:43:26;11.93;;;7.45;;
549;SDS011;20066;48.764;9.176;2022-11-12T15:45:56;18.65;;;10.10;;
549;SDS011;20066;48.764;9.176;2022-11-12T15:48:25;13.27;;;9.00;;
549;SDS011;20066;48.764;9.176;2022-11-12T15:50:53;15.10;;;8.02;;
549;SDS011;20066;48.764;9.176;2022-11-12T15:53:21;19.60;;;9.90;;
549;SDS011;20066;48.764;9.176;2022-11-12T15:55:50;15.40;;;8.63;;
549;SDS011;20066;48.764;9.176;2022-11-12T15:58:18;14.52;;;8.75;;
549;SDS011;20066;48.764;9.176;2022-11-12T16:00:54;14.23;;;7.63;;
549;SDS011;20066;48.764;9.176;2022-11-12T16:03:22;10.85;;;8.45;;
549;SDS011;20066;48.764;9.176;2022-11-12T16:05:52;19.98;;;9.60;;
549;SDS011;20066;48.764;9.176;2022-11-12T16:08:20;18.58;;;7.72;;